createdAt,value
2019-06-27T00:00:01.867Z,25.6
2019-06-27T00:01:05.344Z,25.8
2019-06-27T00:02:06.658Z,25.7
2019-06-27T00:03:07.994Z,25.7
2019-06-27T00:04:09.341Z,25.7
2019-06-27T00:05:10.668Z,25.6
2019-06-27T00:06:12.065Z,25.8
2019-06-27T00:07:13.417Z,25.7
2019-06-27T00:08:15.302Z,25.6
2019-06-27T00:09:16.590Z,25.5
2019-06-27T00:10:17.948Z,25.6
2019-06-27T00:11:19.211Z,25.4
2019-06-27T00:12:20.620Z,25.5
2019-06-27T00:13:22.236Z,25.3
2019-06-27T00:14:23.806Z,25.4
2019-06-27T00:15:25.100Z,25.2
2019-06-27T00:16:26.412Z,25.2
2019-06-27T00:17:27.725Z,25.3
2019-06-27T00:18:29.334Z,25.4
2019-06-27T00:19:30.637Z,25.4
2019-06-27T00:20:32.349Z,25.2
2019-06-27T00:21:33.694Z,25.3
2019-06-27T00:22:34.949Z,25.1
2019-06-27T00:23:36.284Z,25
2019-06-27T00:24:37.587Z,24.9
2019-06-27T00:25:38.880Z,24.7
2019-06-27T00:26:52.953Z,24.5
2019-06-27T00:27:58.517Z,24.7
2019-06-27T00:29:00.356Z,24.9
2019-06-27T00:30:03.458Z,24.8
2019-06-27T00:31:05.392Z,24.7
2019-06-27T00:32:06.996Z,24.6
2019-06-27T00:33:08.304Z,24.6
2019-06-27T00:34:09.678Z,24.6
2019-06-27T00:35:11.054Z,24.7
2019-06-27T00:36:12.330Z,24.5
2019-06-27T00:37:13.639Z,24.6
2019-06-27T00:38:14.946Z,24.5
2019-06-27T00:39:16.298Z,24.5
2019-06-27T00:40:17.593Z,24.7
2019-06-27T00:41:18.870Z,24.3
2019-06-27T00:42:20.216Z,24.4
2019-06-27T00:43:21.522Z,24.2
2019-06-27T00:44:22.890Z,24.4
2019-06-27T00:45:24.186Z,24.3
2019-06-27T00:46:25.490Z,24.4
2019-06-27T00:47:26.900Z,24.5
2019-06-27T00:48:28.184Z,24.4
2019-06-27T00:49:30.375Z,23.9
2019-06-27T00:50:31.804Z,24.4
2019-06-27T00:51:33.392Z,24.6
2019-06-27T00:52:34.798Z,24.8
2019-06-27T00:53:36.580Z,24.5
2019-06-27T00:54:38.556Z,24.5
2019-06-27T00:55:39.937Z,24.2
2019-06-27T00:56:41.272Z,24
2019-06-27T00:57:42.587Z,23.9
2019-06-27T00:58:43.896Z,24.1
2019-06-27T00:59:45.696Z,24.3
2019-06-27T01:00:49.494Z,24.4
2019-06-27T01:01:50.990Z,24.4
2019-06-27T01:02:52.304Z,24.4
2019-06-27T01:03:53.688Z,24.5
2019-06-27T01:04:55.394Z,24.2
2019-06-27T01:05:56.672Z,24.2
2019-06-27T01:06:58.055Z,24
2019-06-27T01:07:59.376Z,24
2019-06-27T01:09:00.792Z,23.8
2019-06-27T01:10:02.276Z,24
2019-06-27T01:11:03.587Z,24.1
2019-06-27T01:12:04.904Z,24.2
2019-06-27T01:13:06.574Z,24.3
2019-06-27T01:14:08.444Z,24.3
2019-06-27T01:15:10.076Z,24.3
2019-06-27T01:16:11.373Z,23.9
2019-06-27T01:17:12.674Z,23.7
2019-06-27T01:18:14.070Z,23.8
2019-06-27T01:19:15.423Z,23.9
2019-06-27T01:20:16.759Z,23.6
2019-06-27T01:21:18.087Z,23.9
2019-06-27T01:22:19.724Z,23.8
2019-06-27T01:23:21.041Z,23.8
2019-06-27T01:24:22.445Z,23.6
2019-06-27T01:25:23.791Z,23.2
2019-06-27T01:26:25.084Z,23.5
2019-06-27T01:27:30.156Z,23.6
2019-06-27T01:28:31.749Z,23.6
2019-06-27T01:29:33.055Z,23.5
2019-06-27T01:30:34.405Z,23.5
2019-06-27T01:31:35.709Z,23.5
2019-06-27T01:32:37.100Z,23.5
2019-06-27T01:33:38.495Z,23.7
2019-06-27T01:34:39.812Z,23.6
2019-06-27T01:35:41.284Z,23.6
2019-06-27T01:36:43.087Z,23.5
2019-06-27T01:37:44.391Z,23.4
2019-06-27T01:38:45.737Z,23.5
2019-06-27T01:39:49.680Z,23.6
2019-06-27T01:40:51.036Z,23.5
2019-06-27T01:41:52.330Z,23.4
2019-06-27T01:42:53.710Z,23.4
2019-06-27T01:43:55.092Z,23.3
2019-06-27T01:44:56.452Z,23
2019-06-27T01:45:57.822Z,23.3
2019-06-27T01:46:59.120Z,23.4
2019-06-27T01:48:00.419Z,23.3
2019-06-27T01:49:01.736Z,23.3
2019-06-27T01:50:03.023Z,23.2
2019-06-27T01:51:04.360Z,23.3
2019-06-27T01:52:05.666Z,23.1
2019-06-27T01:53:08.984Z,23.1
2019-06-27T01:54:10.268Z,23.2
2019-06-27T01:55:11.562Z,23.2
2019-06-27T01:56:12.901Z,22.8
2019-06-27T01:57:14.265Z,23
2019-06-27T01:58:15.604Z,23.1
2019-06-27T01:59:17.245Z,23.3
2019-06-27T02:00:18.887Z,23.3
2019-06-27T02:01:20.351Z,22.9
2019-06-27T02:02:21.675Z,22.8
2019-06-27T02:03:23.697Z,23
2019-06-27T02:04:25.605Z,23.1
2019-06-27T02:05:26.939Z,23.2
2019-06-27T02:06:29.566Z,23.2
2019-06-27T02:07:30.859Z,23
2019-06-27T02:08:32.261Z,23.1
2019-06-27T02:09:33.926Z,23
2019-06-27T02:10:35.259Z,23
2019-06-27T02:11:36.648Z,22.6
2019-06-27T02:12:37.996Z,22.7
2019-06-27T02:13:39.312Z,22.8
2019-06-27T02:14:40.611Z,22.7
2019-06-27T02:15:41.884Z,22.3
2019-06-27T02:16:43.224Z,22.2
2019-06-27T02:17:44.578Z,22.3
2019-06-27T02:18:45.874Z,22.2
2019-06-27T02:19:47.169Z,22.1
2019-06-27T02:20:49.123Z,22.1
2019-06-27T02:21:55.395Z,22.5
2019-06-27T02:22:56.703Z,22.6
2019-06-27T02:23:57.985Z,22.5
2019-06-27T02:24:59.287Z,22.5
2019-06-27T02:26:00.764Z,22.6
2019-06-27T02:27:02.275Z,22.5
2019-06-27T02:28:04.416Z,22.6
2019-06-27T02:29:05.894Z,22.4
2019-06-27T02:30:07.201Z,22.3
2019-06-27T02:31:08.513Z,22.2
2019-06-27T02:32:09.908Z,22.1
2019-06-27T02:33:11.207Z,22.2
2019-06-27T02:34:12.529Z,22.1
2019-06-27T02:35:13.872Z,22.2
2019-06-27T02:36:15.180Z,22.1
2019-06-27T02:37:16.604Z,22
2019-06-27T02:38:17.914Z,22
2019-06-27T02:39:21.353Z,22.1
2019-06-27T02:40:22.665Z,22.2
2019-06-27T02:41:23.934Z,22.3
2019-06-27T02:42:25.251Z,22.1
2019-06-27T02:43:26.664Z,22.1
2019-06-27T02:44:28.004Z,22
2019-06-27T02:45:29.329Z,22.2
2019-06-27T02:46:30.603Z,22.1
2019-06-27T02:47:32.005Z,22.1
2019-06-27T02:48:33.299Z,21.8
2019-06-27T02:49:34.615Z,21.7
2019-06-27T02:50:35.944Z,21.9
2019-06-27T02:51:37.239Z,22
2019-06-27T02:52:38.602Z,21.8
2019-06-27T02:53:39.917Z,21.7
2019-06-27T02:54:41.209Z,22
2019-06-27T02:55:42.520Z,22.2
2019-06-27T02:56:43.808Z,22.2
2019-06-27T02:57:45.159Z,22.1
2019-06-27T02:58:46.497Z,22.1
2019-06-27T02:59:47.809Z,22.3
2019-06-27T03:00:49.162Z,22.3
2019-06-27T03:01:50.549Z,22.1
2019-06-27T03:02:51.915Z,22
2019-06-27T03:03:53.237Z,21.6
2019-06-27T03:04:54.533Z,21.7
2019-06-27T03:05:55.916Z,21.8
2019-06-27T03:06:57.236Z,22
2019-06-27T03:07:58.753Z,21.9
2019-06-27T03:09:00.118Z,22
2019-06-27T03:10:01.461Z,22
2019-06-27T03:11:02.832Z,22.1
2019-06-27T03:12:04.205Z,22.1
2019-06-27T03:13:05.649Z,22.2
2019-06-27T03:14:06.997Z,22.3
2019-06-27T03:15:08.354Z,22.1
2019-06-27T03:16:09.964Z,22.2
2019-06-27T03:17:11.265Z,22.2
2019-06-27T03:18:12.781Z,22.1
2019-06-27T03:19:14.417Z,22.2
2019-06-27T03:20:15.810Z,22.2
2019-06-27T03:21:17.169Z,22.1
2019-06-27T03:22:18.501Z,22.1
2019-06-27T03:23:19.860Z,22.2
2019-06-27T03:24:21.258Z,22.2
2019-06-27T03:25:22.583Z,22.2
2019-06-27T03:26:23.925Z,22.1
2019-06-27T03:27:25.198Z,22
2019-06-27T03:28:26.563Z,22.1
2019-06-27T03:29:50.454Z,21.9
2019-06-27T03:30:51.927Z,21.8
2019-06-27T03:31:54.005Z,21.6
2019-06-27T03:32:56.461Z,21.7
2019-06-27T03:33:58.053Z,21.7
2019-06-27T03:34:59.405Z,21.9
2019-06-27T03:36:00.717Z,21.8
2019-06-27T03:37:02.065Z,21.8
2019-06-27T03:38:03.418Z,21.9
2019-06-27T03:39:04.941Z,21.7
2019-06-27T03:40:06.245Z,21.7
2019-06-27T03:41:07.617Z,21.6
2019-06-27T03:42:08.988Z,21.5
2019-06-27T03:43:10.339Z,21.3
2019-06-27T03:44:11.736Z,21.6
2019-06-27T03:45:15.501Z,21.4
2019-06-27T03:46:17.448Z,21.5
2019-06-27T03:47:18.834Z,21.5
2019-06-27T03:48:20.113Z,21.6
2019-06-27T03:49:21.469Z,21.6
2019-06-27T03:50:22.781Z,21.7
2019-06-27T03:51:24.127Z,21.8
2019-06-27T03:52:25.425Z,21.9
2019-06-27T03:53:26.706Z,21.7
2019-06-27T03:54:28.128Z,21.3
2019-06-27T03:55:29.456Z,21.4
2019-06-27T03:56:30.781Z,21.2
2019-06-27T03:57:32.191Z,21.5
2019-06-27T03:58:33.490Z,21.5
2019-06-27T03:59:34.873Z,21.6
2019-06-27T04:00:36.218Z,21.6
2019-06-27T04:01:38.155Z,21.7
2019-06-27T04:02:39.502Z,21.7
2019-06-27T04:03:42.917Z,21.8
2019-06-27T04:04:44.623Z,21.5
2019-06-27T04:05:45.921Z,21.5
2019-06-27T04:06:47.253Z,21.6
2019-06-27T04:07:48.718Z,21.8
2019-06-27T04:08:50.027Z,21.4
2019-06-27T04:09:51.453Z,21.3
2019-06-27T04:10:52.737Z,21.2
2019-06-27T04:11:54.030Z,21.2
2019-06-27T04:12:55.516Z,21.4
2019-06-27T04:13:56.978Z,21.6
2019-06-27T04:14:58.357Z,21.5
2019-06-27T04:15:59.670Z,21.5
2019-06-27T04:17:00.994Z,21.7
2019-06-27T04:18:02.355Z,21.5
2019-06-27T04:19:03.685Z,21.5
2019-06-27T04:20:05.059Z,21.4
2019-06-27T04:21:06.612Z,21.2
2019-06-27T04:22:07.927Z,21.2
2019-06-27T04:23:09.242Z,21.2
2019-06-27T04:24:10.570Z,21.3
2019-06-27T04:25:11.949Z,21.4
2019-06-27T04:26:13.286Z,21.3
2019-06-27T04:27:14.624Z,21.4
2019-06-27T04:28:15.941Z,21.3
2019-06-27T04:29:32.476Z,21.1
2019-06-27T04:30:35.470Z,21.4
2019-06-27T04:31:36.863Z,21.4
2019-06-27T04:32:38.166Z,21.5
2019-06-27T04:33:39.534Z,21.4
2019-06-27T04:34:41.032Z,21.6
2019-06-27T04:35:42.748Z,21.7
2019-06-27T04:36:44.102Z,21.8
2019-06-27T04:37:45.443Z,21.8
2019-06-27T04:38:46.842Z,21.7
2019-06-27T04:39:48.182Z,21.7
2019-06-27T04:40:49.652Z,21.8
2019-06-27T04:41:50.962Z,21.8
2019-06-27T04:42:53.545Z,21.8
2019-06-27T04:43:55.005Z,21.9
2019-06-27T04:44:56.716Z,21.8
2019-06-27T04:45:58.186Z,21.8
2019-06-27T04:47:01.138Z,21.9
2019-06-27T04:48:02.793Z,21.8
2019-06-27T04:49:04.114Z,21.8
2019-06-27T04:50:05.430Z,21.9
2019-06-27T04:51:06.825Z,21.8
2019-06-27T04:52:08.138Z,21.9
2019-06-27T04:53:09.444Z,21.9
2019-06-27T04:54:10.820Z,21.9
2019-06-27T04:55:12.395Z,21.8
2019-06-27T04:56:13.785Z,21.8
2019-06-27T04:57:15.168Z,21.9
2019-06-27T04:58:16.528Z,22
2019-06-27T04:59:17.874Z,21.8
2019-06-27T05:00:19.205Z,21.9
2019-06-27T05:01:20.543Z,22.1
2019-06-27T05:02:21.836Z,22.1
2019-06-27T05:03:23.128Z,22.2
2019-06-27T05:04:24.411Z,22.3
2019-06-27T05:05:25.729Z,22.2
2019-06-27T05:06:27.088Z,22.2
2019-06-27T05:07:28.448Z,22.4
2019-06-27T05:08:29.758Z,22.5
2019-06-27T05:09:31.073Z,22.2
2019-06-27T05:10:32.414Z,22.3
2019-06-27T05:11:33.892Z,22.6
2019-06-27T05:12:35.216Z,22.7
2019-06-27T05:13:36.550Z,22.7
2019-06-27T05:14:37.898Z,22.7
2019-06-27T05:15:39.252Z,22.8
2019-06-27T05:16:40.613Z,23
2019-06-27T05:17:41.902Z,23.1
2019-06-27T05:18:43.216Z,23.1
2019-06-27T05:19:44.575Z,23.2
2019-06-27T05:20:45.936Z,23.3
2019-06-27T05:21:47.714Z,23.4
2019-06-27T05:22:49.029Z,23.4
2019-06-27T05:23:50.331Z,23.5
2019-06-27T05:24:51.653Z,23.4
2019-06-27T05:25:52.975Z,23.5
2019-06-27T05:26:54.306Z,23.5
2019-06-27T05:27:55.638Z,23.5
2019-06-27T05:28:56.976Z,23.5
2019-06-27T05:30:08.506Z,23.5
2019-06-27T05:31:11.519Z,23.5
2019-06-27T05:32:12.922Z,23.4
2019-06-27T05:33:14.236Z,23.4
2019-06-27T05:34:15.660Z,23.3
2019-06-27T05:35:17.028Z,23.5
2019-06-27T05:36:18.434Z,23.5
2019-06-27T05:37:19.790Z,23.5
2019-06-27T05:38:21.122Z,23.5
2019-06-27T05:39:22.473Z,23.6
2019-06-27T05:40:23.855Z,23.7
2019-06-27T05:41:25.193Z,23.7
2019-06-27T05:42:26.528Z,23.9
2019-06-27T05:43:27.868Z,24
2019-06-27T05:44:29.200Z,24.2
2019-06-27T05:45:30.549Z,24.3
2019-06-27T05:46:31.914Z,24.4
2019-06-27T05:47:33.308Z,24.5
2019-06-27T05:48:34.636Z,24.5
2019-06-27T05:49:36.002Z,24.6
2019-06-27T05:50:37.339Z,24.6
2019-06-27T05:51:38.683Z,24.8
2019-06-27T05:52:40.077Z,24.9
2019-06-27T05:53:41.428Z,24.7
2019-06-27T05:54:46.412Z,24.7
2019-06-27T05:55:47.696Z,24.8
2019-06-27T05:56:49.007Z,24.8
2019-06-27T05:57:50.344Z,24.9
2019-06-27T05:58:51.989Z,25
2019-06-27T05:59:53.552Z,25.2
2019-06-27T06:00:54.847Z,25.2
2019-06-27T06:01:56.180Z,25.3
2019-06-27T06:02:57.526Z,25.4
2019-06-27T06:03:58.832Z,25.4
2019-06-27T06:05:00.134Z,25.4
2019-06-27T06:06:02.582Z,25.3
2019-06-27T06:07:04.895Z,25.2
2019-06-27T06:08:06.278Z,25.2
2019-06-27T06:09:07.679Z,25.1
2019-06-27T06:10:09.005Z,25.1
2019-06-27T06:11:10.382Z,25.2
2019-06-27T06:12:13.222Z,25.3
2019-06-27T06:13:14.580Z,25.4
2019-06-27T06:14:15.923Z,25.5
2019-06-27T06:15:17.274Z,25.8
2019-06-27T06:16:18.600Z,26
2019-06-27T06:17:19.943Z,26.1
2019-06-27T06:18:21.283Z,26.2
2019-06-27T06:19:22.586Z,26.3
2019-06-27T06:20:23.871Z,26.4
2019-06-27T06:21:25.203Z,26.5
2019-06-27T06:22:26.535Z,26.6
2019-06-27T06:23:27.891Z,26.7
2019-06-27T06:24:29.239Z,26.8
2019-06-27T06:25:30.595Z,26.9
2019-06-27T06:26:31.907Z,26.9
2019-06-27T06:27:33.213Z,27
2019-06-27T06:28:34.643Z,27.1
2019-06-27T06:29:35.959Z,27.2
2019-06-27T06:30:44.165Z,27.2
2019-06-27T06:31:49.016Z,27.3
2019-06-27T06:32:51.489Z,27.4
2019-06-27T06:33:52.868Z,27.4
2019-06-27T06:34:54.381Z,27.5
2019-06-27T06:35:55.757Z,27.5
2019-06-27T06:36:57.069Z,27.6
2019-06-27T06:37:58.431Z,27.7
2019-06-27T06:38:59.843Z,27.8
2019-06-27T06:40:01.392Z,27.8
2019-06-27T06:41:02.719Z,27.9
2019-06-27T06:42:04.052Z,27.8
2019-06-27T06:43:05.403Z,28
2019-06-27T06:44:06.748Z,28.1
2019-06-27T06:45:08.081Z,28.1
2019-06-27T06:46:09.406Z,28.1
2019-06-27T06:47:10.747Z,28.1
2019-06-27T06:48:12.061Z,28
2019-06-27T06:49:13.427Z,27.7
2019-06-27T06:50:14.759Z,27.9
2019-06-27T06:51:16.114Z,28
2019-06-27T06:52:17.457Z,27.9
2019-06-27T06:53:18.818Z,27.9
2019-06-27T06:54:20.221Z,28
2019-06-27T06:55:21.555Z,28.1
2019-06-27T06:56:22.877Z,28.2
2019-06-27T06:57:24.213Z,28.2
2019-06-27T06:58:25.611Z,28.1
2019-06-27T06:59:26.963Z,28.1
2019-06-27T07:00:28.329Z,28.2
2019-06-27T07:01:29.694Z,28.2
2019-06-27T07:02:31.002Z,28.4
2019-06-27T07:03:32.879Z,28.5
2019-06-27T07:04:34.258Z,28.5
2019-06-27T07:05:35.594Z,28.6
2019-06-27T07:06:36.921Z,28.6
2019-06-27T07:07:38.335Z,28.7
2019-06-27T07:08:39.638Z,28.7
2019-06-27T07:09:41.023Z,28.7
2019-06-27T07:10:42.351Z,28.8
2019-06-27T07:11:43.684Z,28.8
2019-06-27T07:12:45.015Z,28.9
2019-06-27T07:13:46.367Z,28.9
2019-06-27T07:14:47.762Z,28.9
2019-06-27T07:15:49.104Z,29
2019-06-27T07:16:50.457Z,29.1
2019-06-27T07:17:51.822Z,29.1
2019-06-27T07:18:53.134Z,29
2019-06-27T07:19:57.416Z,29
2019-06-27T07:20:58.994Z,29.1
2019-06-27T07:22:00.304Z,29.2
2019-06-27T07:23:01.613Z,29.3
2019-06-27T07:24:03.711Z,29.3
2019-06-27T07:25:05.384Z,29.3
2019-06-27T07:26:06.702Z,29.3
2019-06-27T07:27:08.128Z,29.3
2019-06-27T07:28:09.523Z,29.3
2019-06-27T07:29:10.879Z,29.3
2019-06-27T07:30:12.715Z,29.3
2019-06-27T07:31:17.966Z,29.5
2019-06-27T07:32:20.782Z,29.5
2019-06-27T07:33:22.135Z,29.5
2019-06-27T07:34:23.456Z,29.7
2019-06-27T07:35:24.801Z,29.7
2019-06-27T07:36:26.155Z,29.8
2019-06-27T07:37:27.932Z,29.7
2019-06-27T07:38:29.240Z,29.9
2019-06-27T07:39:30.580Z,29.8
2019-06-27T07:40:31.995Z,30
2019-06-27T07:41:33.315Z,30.1
2019-06-27T07:42:34.649Z,30.1
2019-06-27T07:43:36.009Z,30.1
2019-06-27T07:44:38.355Z,30.1
2019-06-27T07:45:39.887Z,30.2
2019-06-27T07:46:41.178Z,30.3
2019-06-27T07:47:42.545Z,30.3
2019-06-27T07:48:43.955Z,30.2
2019-06-27T07:49:45.300Z,30.1
2019-06-27T07:50:46.690Z,30.2
2019-06-27T07:51:47.987Z,30.3
2019-06-27T07:52:49.759Z,30.4
2019-06-27T07:53:52.080Z,30.4
2019-06-27T07:54:53.393Z,30.6
2019-06-27T07:55:54.903Z,30.6
2019-06-27T07:56:56.253Z,30.6
2019-06-27T07:57:57.659Z,30.6
2019-06-27T07:59:01.398Z,30.4
2019-06-27T08:00:02.725Z,30.5
2019-06-27T08:01:04.202Z,30.6
2019-06-27T08:02:05.540Z,30.6
2019-06-27T08:03:07.525Z,30.6
2019-06-27T08:04:08.832Z,30.7
2019-06-27T08:05:10.199Z,30.7
2019-06-27T08:06:11.571Z,30.6
2019-06-27T08:07:12.923Z,30.9
2019-06-27T08:08:14.239Z,30.8
2019-06-27T08:09:15.614Z,30.9
2019-06-27T08:10:16.921Z,30.9
2019-06-27T08:11:18.309Z,31
2019-06-27T08:12:19.731Z,31
2019-06-27T08:13:21.142Z,31.2
2019-06-27T08:14:22.479Z,31.2
2019-06-27T08:15:24.127Z,31.2
2019-06-27T08:16:25.493Z,31.2
2019-06-27T08:17:26.801Z,31.2
2019-06-27T08:18:28.509Z,31.3
2019-06-27T08:19:30.022Z,31.2
2019-06-27T08:20:31.803Z,31.3
2019-06-27T08:21:33.206Z,31.3
2019-06-27T08:22:34.537Z,31.3
2019-06-27T08:23:41.329Z,31.3
2019-06-27T08:24:43.513Z,31.2
2019-06-27T08:25:45.481Z,31.3
2019-06-27T08:26:46.927Z,31.3
2019-06-27T08:27:48.597Z,31.3
2019-06-27T08:28:49.930Z,31.6
2019-06-27T08:29:51.457Z,31.7
2019-06-27T08:30:52.795Z,31.7
2019-06-27T08:31:54.173Z,31.6
2019-06-27T08:32:55.537Z,31.6
2019-06-27T08:33:57.007Z,31.7
2019-06-27T08:34:58.355Z,31.7
2019-06-27T08:35:59.725Z,31.8
2019-06-27T08:37:01.121Z,31.9
2019-06-27T08:38:02.510Z,31.9
2019-06-27T08:39:03.929Z,31.9
2019-06-27T08:40:05.285Z,32
2019-06-27T08:41:06.649Z,31.9
2019-06-27T08:42:08.036Z,31.9
2019-06-27T08:43:09.360Z,32
2019-06-27T08:44:10.731Z,32
2019-06-27T08:45:12.059Z,32
2019-06-27T08:46:13.377Z,31.9
2019-06-27T08:47:14.783Z,31.9
2019-06-27T08:48:16.121Z,31.9
2019-06-27T08:49:17.413Z,31.9
2019-06-27T08:50:18.813Z,32
2019-06-27T08:51:20.212Z,31.9
2019-06-27T08:52:21.589Z,31.9
2019-06-27T08:53:23.062Z,32
2019-06-27T08:54:24.422Z,32
2019-06-27T08:55:25.909Z,32.1
2019-06-27T08:56:27.342Z,32.2
2019-06-27T08:57:31.323Z,32.2
2019-06-27T08:58:32.633Z,32
2019-06-27T08:59:33.955Z,32
2019-06-27T09:00:35.273Z,32.2
2019-06-27T09:01:36.573Z,32.3
2019-06-27T09:02:37.908Z,32.3
2019-06-27T09:03:39.211Z,32.2
2019-06-27T09:04:40.530Z,32.2
2019-06-27T09:05:41.829Z,32.1
2019-06-27T09:06:43.141Z,32.1
2019-06-27T09:07:44.577Z,32.1
2019-06-27T09:08:45.883Z,32.2
2019-06-27T09:09:47.221Z,32.1
2019-06-27T09:10:48.527Z,32.1
2019-06-27T09:11:50.255Z,32
2019-06-27T09:12:51.641Z,32
2019-06-27T09:13:53.005Z,32
2019-06-27T09:14:54.360Z,31.9
2019-06-27T09:15:55.701Z,32.1
2019-06-27T09:16:57.039Z,32.2
2019-06-27T09:17:58.421Z,32.2
2019-06-27T09:18:59.782Z,32
2019-06-27T09:20:01.089Z,32.2
2019-06-27T09:21:02.400Z,32.3
2019-06-27T09:22:03.721Z,32.3
2019-06-27T09:23:05.103Z,32.2
2019-06-27T09:24:06.421Z,32.2
2019-06-27T09:25:07.833Z,32.2
2019-06-27T09:26:09.140Z,32.2
2019-06-27T09:27:10.506Z,32.2
2019-06-27T09:28:12.060Z,32.2
2019-06-27T09:29:13.365Z,32.3
2019-06-27T09:30:14.675Z,32.3
2019-06-27T09:31:16.061Z,32.3
2019-06-27T09:32:25.159Z,32.3
2019-06-27T09:33:27.502Z,32.3
2019-06-27T09:34:28.839Z,32.3
2019-06-27T09:35:30.161Z,32.3
2019-06-27T09:36:33.473Z,32.3
2019-06-27T09:37:34.770Z,32.3
2019-06-27T09:38:36.127Z,32.3
2019-06-27T09:39:37.438Z,32.3
2019-06-27T09:40:38.743Z,32.3
2019-06-27T09:41:40.069Z,32.3
2019-06-27T09:42:41.394Z,32.3
2019-06-27T09:43:42.786Z,32.3
2019-06-27T09:44:44.137Z,32.4
2019-06-27T09:45:45.495Z,32.3
2019-06-27T09:46:46.836Z,32.3
2019-06-27T09:47:48.114Z,32.3
2019-06-27T09:48:49.463Z,32.3
2019-06-27T09:49:50.967Z,32.3
2019-06-27T09:50:52.571Z,32.3
2019-06-27T09:51:53.877Z,32.3
2019-06-27T09:52:55.188Z,32.2
2019-06-27T09:53:57.117Z,32.2
2019-06-27T09:54:58.396Z,32.2
2019-06-27T09:55:59.720Z,32.2
2019-06-27T09:57:01.116Z,32.2
2019-06-27T09:58:02.445Z,32.1
2019-06-27T09:59:04.019Z,32.1
2019-06-27T10:00:05.328Z,32.1
2019-06-27T10:01:06.812Z,32.1
2019-06-27T10:02:08.128Z,32
2019-06-27T10:03:09.401Z,32.1
2019-06-27T10:04:10.756Z,32
2019-06-27T10:05:12.092Z,32.1
2019-06-27T10:06:13.401Z,32.1
2019-06-27T10:07:14.684Z,32.1
2019-06-27T10:08:16.045Z,32
2019-06-27T10:09:17.449Z,32
2019-06-27T10:10:18.775Z,31.9
2019-06-27T10:11:20.100Z,31.8
2019-06-27T10:12:21.410Z,31.8
2019-06-27T10:13:22.732Z,31.8
2019-06-27T10:14:24.204Z,31.8
2019-06-27T10:15:25.554Z,31.8
2019-06-27T10:16:26.863Z,31.8
2019-06-27T10:17:28.142Z,31.9
2019-06-27T10:18:29.452Z,31.9
2019-06-27T10:19:30.860Z,31.9
2019-06-27T10:20:32.332Z,31.8
2019-06-27T10:21:33.635Z,31.8
2019-06-27T10:22:34.949Z,31.8
2019-06-27T10:23:36.351Z,31.8
2019-06-27T10:24:37.692Z,31.7
2019-06-27T10:25:39.045Z,31.7
2019-06-27T10:26:40.442Z,31.7
2019-06-27T10:27:41.735Z,31.7
2019-06-27T10:28:43.100Z,31.7
2019-06-27T10:29:44.503Z,31.6
2019-06-27T10:30:48.977Z,31.6
2019-06-27T10:31:50.486Z,31.6
2019-06-27T10:32:58.769Z,31.6
2019-06-27T10:34:01.336Z,31.6
2019-06-27T10:35:02.715Z,31.6
2019-06-27T10:36:04.046Z,31.5
2019-06-27T10:37:05.522Z,31.5
2019-06-27T10:38:06.838Z,31.5
2019-06-27T10:39:08.180Z,31.5
2019-06-27T10:40:09.566Z,31.5
2019-06-27T10:41:11.130Z,31.5
2019-06-27T10:42:12.450Z,31.5
2019-06-27T10:43:14.933Z,31.5
2019-06-27T10:44:16.332Z,31.5
2019-06-27T10:45:17.708Z,31.5
2019-06-27T10:46:19.034Z,31.5
2019-06-27T10:47:20.370Z,31.5
2019-06-27T10:48:21.693Z,31.4
2019-06-27T10:49:22.986Z,31.4
2019-06-27T10:50:24.306Z,31.4
2019-06-27T10:51:25.592Z,31.5
2019-06-27T10:52:26.974Z,31.5
2019-06-27T10:53:28.400Z,31.5
2019-06-27T10:54:29.684Z,31.5
2019-06-27T10:55:31.043Z,31.4
2019-06-27T10:56:35.662Z,31.4
2019-06-27T10:57:40.793Z,31.5
2019-06-27T10:58:42.124Z,31.5
2019-06-27T10:59:43.481Z,31.4
2019-06-27T11:00:44.886Z,31.4
2019-06-27T11:01:46.478Z,31.4
2019-06-27T11:02:47.779Z,31.4
2019-06-27T11:03:49.060Z,31.4
2019-06-27T11:04:50.401Z,31.4
2019-06-27T11:05:51.766Z,31.3
2019-06-27T11:06:53.074Z,31.3
2019-06-27T11:07:54.388Z,31.3
2019-06-27T11:08:55.727Z,31.3
2019-06-27T11:09:57.069Z,31.3
2019-06-27T11:11:00.134Z,31.3
2019-06-27T11:12:01.470Z,31.2
2019-06-27T11:13:03.562Z,31.2
2019-06-27T11:14:04.913Z,31.2
2019-06-27T11:15:06.673Z,31.2
2019-06-27T11:16:08.089Z,31.2
2019-06-27T11:17:09.418Z,31.1
2019-06-27T11:18:10.751Z,31.1
2019-06-27T11:19:14.338Z,31
2019-06-27T11:20:16.052Z,31.1
2019-06-27T11:21:17.370Z,31.1
2019-06-27T11:22:18.722Z,31.1
2019-06-27T11:23:20.062Z,31.1
2019-06-27T11:24:21.332Z,31.1
2019-06-27T11:25:22.656Z,31.1
2019-06-27T11:26:24.052Z,31.1
2019-06-27T11:27:27.367Z,31.1
2019-06-27T11:28:28.844Z,31.1
2019-06-27T11:29:30.164Z,31.1
2019-06-27T11:30:31.559Z,31
2019-06-27T11:31:33.240Z,31
2019-06-27T11:32:34.560Z,31
2019-06-27T11:33:35.881Z,31
2019-06-27T11:34:37.242Z,31
2019-06-27T11:35:38.544Z,31
2019-06-27T11:36:39.880Z,31
2019-06-27T11:37:41.177Z,31
2019-06-27T11:38:42.501Z,31
2019-06-27T11:39:43.845Z,30.9
2019-06-27T11:40:45.154Z,30.9
2019-06-27T11:41:46.550Z,30.9
2019-06-27T11:42:47.980Z,30.9
2019-06-27T11:43:49.322Z,30.9
2019-06-27T11:44:50.662Z,30.9
2019-06-27T11:45:51.997Z,30.9
2019-06-27T11:46:53.452Z,30.9
2019-06-27T11:47:54.784Z,30.9
2019-06-27T11:48:56.132Z,30.9
2019-06-27T11:49:57.434Z,30.9
2019-06-27T11:50:58.749Z,30.8
2019-06-27T11:52:00.119Z,30.9
2019-06-27T11:53:01.394Z,30.8
2019-06-27T11:54:02.986Z,30.8
2019-06-27T11:55:04.312Z,30.8
2019-06-27T11:56:05.628Z,30.8
2019-06-27T11:57:06.980Z,30.8
2019-06-27T11:58:08.268Z,30.8
2019-06-27T11:59:09.607Z,30.8
2019-06-27T12:00:10.954Z,30.8
2019-06-27T12:01:12.291Z,30.7
2019-06-27T12:02:13.770Z,30.7
2019-06-27T12:03:15.095Z,30.7
2019-06-27T12:04:16.494Z,30.7
2019-06-27T12:05:17.882Z,30.7
2019-06-27T12:06:19.248Z,30.7
2019-06-27T12:07:20.610Z,30.7
2019-06-27T12:08:21.916Z,30.7
2019-06-27T12:09:23.246Z,30.7
2019-06-27T12:10:24.587Z,30.7
2019-06-27T12:11:25.873Z,30.7
2019-06-27T12:12:27.304Z,30.6
2019-06-27T12:13:28.673Z,30.6
2019-06-27T12:14:29.986Z,30.6
2019-06-27T12:15:31.324Z,30.6
2019-06-27T12:16:32.650Z,30.6
2019-06-27T12:17:34.052Z,30.6
2019-06-27T12:18:35.436Z,30.6
2019-06-27T12:19:36.770Z,30.6
2019-06-27T12:20:38.088Z,30.6
2019-06-27T12:21:39.383Z,30.6
2019-06-27T12:22:40.736Z,30.6
2019-06-27T12:23:42.126Z,30.6
2019-06-27T12:24:43.497Z,30.6
2019-06-27T12:25:44.814Z,30.6
2019-06-27T12:26:46.174Z,30.5
2019-06-27T12:27:47.552Z,30.5
2019-06-27T12:28:48.849Z,30.5
2019-06-27T12:29:50.210Z,30.5
2019-06-27T12:30:51.576Z,30.5
2019-06-27T12:31:52.898Z,30.5
2019-06-27T12:32:54.245Z,30.5
2019-06-27T12:34:06.649Z,30.5
2019-06-27T12:35:08.692Z,30.5
2019-06-27T12:36:09.996Z,30.5
2019-06-27T12:37:11.385Z,30.5
2019-06-27T12:38:12.748Z,30.5
2019-06-27T12:39:15.905Z,30.5
2019-06-27T12:40:17.317Z,30.5
2019-06-27T12:41:18.616Z,30.5
2019-06-27T12:42:31.778Z,30.5
2019-06-27T12:43:33.817Z,30.5
2019-06-27T12:44:35.208Z,30.5
2019-06-27T12:45:36.552Z,30.5
2019-06-27T12:46:37.887Z,30.5
2019-06-27T12:47:39.195Z,30.5
2019-06-27T12:48:40.676Z,30.5
2019-06-27T12:50:00.531Z,30.5
2019-06-27T12:51:04.170Z,30.4
2019-06-27T12:52:07.484Z,30.4
2019-06-27T12:53:08.801Z,30.4
2019-06-27T12:54:10.202Z,30.4
2019-06-27T12:55:11.526Z,30.4
2019-06-27T12:56:12.894Z,30.4
2019-06-27T12:57:14.627Z,30.4
2019-06-27T12:58:15.951Z,30.4
2019-06-27T12:59:17.400Z,30.4
2019-06-27T13:00:18.718Z,30.4
2019-06-27T13:01:20.081Z,30.4
2019-06-27T13:02:21.419Z,30.4
2019-06-27T13:03:22.728Z,30.4
2019-06-27T13:04:24.268Z,30.4
2019-06-27T13:05:25.697Z,30.4
2019-06-27T13:06:27.021Z,30.2
2019-06-27T13:07:28.312Z,30.3
2019-06-27T13:08:29.663Z,30.4
2019-06-27T13:09:31.030Z,30.4
2019-06-27T13:10:35.324Z,30.3
2019-06-27T13:11:37.338Z,30.3
2019-06-27T13:12:38.669Z,30.3
2019-06-27T13:13:42.155Z,30.3
2019-06-27T13:14:43.594Z,30.3
2019-06-27T13:15:44.985Z,30.3
2019-06-27T13:16:46.395Z,30.3
2019-06-27T13:17:47.745Z,30.3
2019-06-27T13:18:49.049Z,30.3
2019-06-27T13:19:50.423Z,30.3
2019-06-27T13:20:57.635Z,30.3
2019-06-27T13:21:59.803Z,30.3
2019-06-27T13:23:01.599Z,30.3
2019-06-27T13:24:03.114Z,30.3
2019-06-27T13:25:04.814Z,30.3
2019-06-27T13:26:06.105Z,30.2
2019-06-27T13:27:07.413Z,30.3
2019-06-27T13:28:08.724Z,30.3
2019-06-27T13:29:10.035Z,30.3
2019-06-27T13:30:11.419Z,30.3
2019-06-27T13:31:12.805Z,30.3
2019-06-27T13:32:14.158Z,30.3
2019-06-27T13:33:15.551Z,30.3
2019-06-27T13:34:16.881Z,30.2
2019-06-27T13:35:18.297Z,30.2
2019-06-27T13:36:19.670Z,30.2
2019-06-27T13:37:21.396Z,30.2
2019-06-27T13:38:22.684Z,30.2
2019-06-27T13:39:24.654Z,30.2
2019-06-27T13:40:26.070Z,30.2
2019-06-27T13:41:27.402Z,30.2
2019-06-27T13:42:30.793Z,30.2
2019-06-27T13:43:32.098Z,30.2
2019-06-27T13:44:33.435Z,30.2